createdAt,value
2022-09-12T00:01:11.342Z,4.60
2022-09-12T00:03:40.517Z,3.70
2022-09-12T00:06:10.825Z,3.65
2022-09-12T00:08:39.139Z,3.28
2022-09-12T00:11:10.364Z,3.47
2022-09-12T00:13:41.875Z,3.72
2022-09-12T00:16:16.695Z,4.38
2022-09-12T00:18:47.162Z,4.40
2022-09-12T00:21:16.444Z,3.85
2022-09-12T00:23:44.850Z,3.58
2022-09-12T00:26:13.979Z,4.30
2022-09-12T00:28:43.066Z,4.15
2022-09-12T00:31:15.209Z,3.55
2022-09-12T00:33:43.857Z,4.07
2022-09-12T00:36:15.282Z,4.22
2022-09-12T00:38:44.769Z,3.80
2022-09-12T00:41:17.961Z,4.57
2022-09-12T00:43:48.899Z,4.22
2022-09-12T00:46:35.952Z,3.90
2022-09-12T00:49:12.800Z,4.03
2022-09-12T00:51:45.248Z,5.10
2022-09-12T00:54:17.511Z,3.90
2022-09-12T00:56:47.715Z,4.00
2022-09-12T00:59:19.294Z,5.18
2022-09-12T01:01:51.625Z,4.85
2022-09-12T01:04:22.819Z,4.45
2022-09-12T01:06:52.120Z,4.47
2022-09-12T01:09:22.819Z,5.15
2022-09-12T01:11:53.100Z,4.80
2022-09-12T01:14:21.925Z,4.35
2022-09-12T01:16:52.377Z,4.85
2022-09-12T01:19:51.029Z,4.80
2022-09-12T01:22:36.697Z,5.22
2022-09-12T01:25:12.661Z,4.80
2022-09-12T01:27:51.883Z,4.68
2022-09-12T01:30:32.812Z,5.20
2022-09-12T01:33:24.246Z,5.32
2022-09-12T01:36:03.221Z,5.90
2022-09-12T01:38:39.701Z,5.97
2022-09-12T01:41:18.567Z,5.68
2022-09-12T01:43:52.662Z,6.68
2022-09-12T01:46:25.843Z,6.55
2022-09-12T01:49:01.248Z,6.30
2022-09-12T01:51:35.929Z,6.50
2022-09-12T01:54:09.741Z,6.78
2022-09-12T01:56:41.906Z,6.43
2022-09-12T01:59:14.635Z,6.82
2022-09-12T02:01:49.659Z,8.38
2022-09-12T02:04:21.866Z,7.82
2022-09-12T02:06:53.375Z,6.00
2022-09-12T02:09:27.524Z,6.50
2022-09-12T02:11:58.919Z,5.80
2022-09-12T02:14:32.106Z,6.15
2022-09-12T02:17:05.928Z,6.78
2022-09-12T02:19:38.534Z,6.50
2022-09-12T02:22:08.368Z,6.22
2022-09-12T02:24:41.347Z,6.55
2022-09-12T02:27:14.987Z,7.15
2022-09-12T02:29:44.778Z,6.75
2022-09-12T02:32:22.174Z,7.60
2022-09-12T02:34:56.042Z,8.00
2022-09-12T02:37:29.031Z,7.00
2022-09-12T02:39:57.907Z,7.30
2022-09-12T02:42:26.449Z,6.82
2022-09-12T02:44:58.116Z,7.25
2022-09-12T02:47:32.405Z,7.15
2022-09-12T02:50:01.659Z,6.50
2022-09-12T02:52:30.630Z,7.40
2022-09-12T02:55:00.512Z,6.95
2022-09-12T02:57:28.695Z,7.60
2022-09-12T03:00:00.424Z,8.10
2022-09-12T03:02:39.346Z,7.85
2022-09-12T03:05:19.885Z,7.43
2022-09-12T03:08:08.055Z,7.88
2022-09-12T03:10:47.968Z,7.22
2022-09-12T03:13:22.777Z,7.38
2022-09-12T03:16:04.790Z,7.93
2022-09-12T03:18:48.592Z,7.75
2022-09-12T03:21:23.902Z,7.35
2022-09-12T03:24:06.065Z,8.00
2022-09-12T03:26:38.401Z,9.30
2022-09-12T03:29:08.428Z,12.15
2022-09-12T03:31:36.608Z,15.27
2022-09-12T03:34:06.194Z,10.50
2022-09-12T03:36:34.431Z,9.40
2022-09-12T03:39:02.435Z,8.50
2022-09-12T03:41:30.607Z,8.73
2022-09-12T03:43:58.512Z,8.00
2022-09-12T03:46:26.645Z,7.70
2022-09-12T03:48:54.706Z,8.98
2022-09-12T03:51:24.080Z,12.50
2022-09-12T03:53:52.305Z,10.15
2022-09-12T03:56:20.416Z,9.25
2022-09-12T03:58:48.791Z,11.07
2022-09-12T04:01:19.046Z,10.25
2022-09-12T04:03:48.621Z,10.93
2022-09-12T04:06:19.335Z,14.32
2022-09-12T04:08:51.758Z,12.00
2022-09-12T04:11:21.540Z,10.10
2022-09-12T04:13:49.593Z,9.43
2022-09-12T04:16:18.766Z,8.07
2022-09-12T04:18:47.791Z,8.30
2022-09-12T04:21:17.641Z,9.13
2022-09-12T04:23:46.001Z,8.27
2022-09-12T04:26:17.802Z,8.68
2022-09-12T04:28:47.156Z,9.30
2022-09-12T04:31:17.756Z,8.80
2022-09-12T04:33:46.390Z,12.23
2022-09-12T04:36:16.940Z,21.50
2022-09-12T04:38:45.967Z,15.65
2022-09-12T04:41:17.028Z,12.65
2022-09-12T04:43:47.167Z,11.02
2022-09-12T04:46:19.779Z,10.82
2022-09-12T04:48:52.207Z,14.23
2022-09-12T04:51:25.924Z,12.20
2022-09-12T04:53:55.650Z,11.50
2022-09-12T04:56:25.524Z,11.40
2022-09-12T04:58:53.756Z,11.05
2022-09-12T05:01:23.471Z,10.60
2022-09-12T05:03:52.265Z,10.85
2022-09-12T05:06:22.109Z,11.77
2022-09-12T05:08:50.242Z,11.25
2022-09-12T05:11:24.942Z,11.45
2022-09-12T05:13:57.799Z,11.68
2022-09-12T05:16:29.265Z,12.02
2022-09-12T05:18:58.495Z,11.95
2022-09-12T05:21:28.057Z,14.48
2022-09-12T05:23:58.466Z,11.90
2022-09-12T05:26:26.818Z,14.55
2022-09-12T05:28:55.344Z,13.30
2022-09-12T05:31:27.144Z,14.15
2022-09-12T05:33:56.421Z,15.50
2022-09-12T05:36:26.268Z,20.75
2022-09-12T05:38:55.176Z,18.13
2022-09-12T05:41:29.363Z,20.35
2022-09-12T05:43:59.139Z,18.75
2022-09-12T05:46:30.083Z,21.42
2022-09-12T05:48:58.499Z,22.88
2022-09-12T05:51:28.700Z,23.10
2022-09-12T05:54:00.136Z,23.10
2022-09-12T05:56:29.807Z,30.42
2022-09-12T05:58:59.743Z,24.60
2022-09-12T06:01:30.688Z,22.55
2022-09-12T06:04:04.222Z,23.70
2022-09-12T06:06:33.958Z,22.47
2022-09-12T06:09:03.886Z,19.52
2022-09-12T06:11:34.272Z,18.30
2022-09-12T06:14:03.020Z,21.08
2022-09-12T06:16:34.307Z,20.45
2022-09-12T06:19:04.565Z,20.02
2022-09-12T06:21:33.949Z,18.73
2022-09-12T06:24:02.396Z,18.33
2022-09-12T06:26:30.837Z,17.92
2022-09-12T06:29:00.913Z,18.60
2022-09-12T06:31:30.703Z,15.57
2022-09-12T06:34:02.633Z,16.83
2022-09-12T06:36:32.785Z,17.15
2022-09-12T06:39:02.799Z,16.50
2022-09-12T06:41:32.136Z,17.77
2022-09-12T06:44:01.181Z,26.10
2022-09-12T06:46:30.909Z,22.05
2022-09-12T06:49:01.552Z,17.75
2022-09-12T06:51:29.902Z,21.98
2022-09-12T06:53:59.118Z,15.07
2022-09-12T06:56:28.585Z,13.30
2022-09-12T06:58:58.933Z,14.35
2022-09-12T07:01:28.766Z,9.55
2022-09-12T07:03:58.973Z,13.80
2022-09-12T07:06:31.894Z,7.78
2022-09-12T07:09:01.283Z,9.43
2022-09-12T07:11:31.892Z,9.75
2022-09-12T07:14:02.704Z,9.63
2022-09-12T07:16:31.275Z,6.70
2022-09-12T07:19:01.027Z,11.45
2022-09-12T07:21:31.390Z,7.55
2022-09-12T07:24:00.173Z,10.02
2022-09-12T07:26:30.602Z,12.85
2022-09-12T07:29:25.260Z,6.32
2022-09-12T07:31:48.273Z,11.68
2022-09-12T07:34:18.390Z,9.30
2022-09-12T07:36:47.981Z,9.55
2022-09-12T07:39:16.226Z,6.55
2022-09-12T07:41:44.451Z,13.15
2022-09-12T07:44:12.620Z,15.43
2022-09-12T07:46:40.632Z,15.73
2022-09-12T07:49:08.831Z,11.48
2022-09-12T07:51:37.399Z,9.73
2022-09-12T07:54:10.589Z,12.57
2022-09-12T07:56:39.522Z,14.30
2022-09-12T07:59:09.613Z,7.55
2022-09-12T08:01:37.601Z,10.27
2022-09-12T08:04:06.033Z,13.05
2022-09-12T08:06:36.012Z,11.88
2022-09-12T08:09:04.985Z,10.02
2022-09-12T08:11:34.875Z,13.68
2022-09-12T08:14:03.125Z,12.65
2022-09-12T08:16:33.187Z,14.05
2022-09-12T08:19:03.213Z,18.13
2022-09-12T08:21:33.044Z,8.93
2022-09-12T08:24:03.532Z,16.02
2022-09-12T08:26:33.286Z,17.80
2022-09-12T08:29:04.177Z,16.75
2022-09-12T08:31:36.328Z,10.85
2022-09-12T08:34:05.436Z,9.93
2022-09-12T08:36:33.741Z,20.75
2022-09-12T08:39:04.508Z,12.63
2022-09-12T08:41:36.229Z,17.55
2022-09-12T08:44:48.111Z,15.90
2022-09-12T08:47:22.214Z,12.55
2022-09-12T08:50:02.117Z,10.85
2022-09-12T08:52:34.856Z,15.43
2022-09-12T08:55:06.576Z,15.85
2022-09-12T08:57:34.751Z,18.27
2022-09-12T09:00:07.948Z,12.10
2022-09-12T09:03:17.363Z,8.63
2022-09-12T09:05:52.324Z,8.60
2022-09-12T09:08:41.977Z,14.50
2022-09-12T09:11:27.956Z,12.55
2022-09-12T09:14:26.396Z,13.18
2022-09-12T09:16:58.377Z,16.08
2022-09-12T09:19:30.264Z,16.48
2022-09-12T09:22:01.958Z,14.27
2022-09-12T09:24:35.731Z,11.43
2022-09-12T09:27:23.574Z,14.55
2022-09-12T09:29:57.137Z,16.48
2022-09-12T09:32:32.233Z,10.75
2022-09-12T09:35:01.646Z,8.90
2022-09-12T09:37:39.962Z,11.98
2022-09-12T09:40:19.070Z,15.13
2022-09-12T09:42:57.319Z,12.63
2022-09-12T09:45:29.234Z,17.30
2022-09-12T09:48:04.719Z,14.25
2022-09-12T09:50:33.864Z,13.20
2022-09-12T09:53:03.979Z,13.18
2022-09-12T09:55:39.394Z,12.88
2022-09-12T09:58:07.599Z,17.23
2022-09-12T10:00:37.163Z,12.63
2022-09-12T10:03:25.507Z,11.20
2022-09-12T10:05:54.971Z,8.95
2022-09-12T10:08:24.992Z,16.67
2022-09-12T10:11:02.812Z,12.82
2022-09-12T10:13:39.235Z,13.07
2022-09-12T10:16:19.173Z,10.77
2022-09-12T10:18:51.057Z,10.18
2022-09-12T10:21:30.531Z,14.60
2022-09-12T10:24:06.129Z,9.45
2022-09-12T10:26:37.071Z,7.65
2022-09-12T10:29:13.691Z,15.23
2022-09-12T10:31:49.801Z,7.70
2022-09-12T10:34:30.582Z,13.25
2022-09-12T10:37:05.120Z,6.25
2022-09-12T10:39:34.473Z,25.80
2022-09-12T10:42:03.165Z,10.55
2022-09-12T10:44:32.848Z,5.93
2022-09-12T10:47:19.924Z,3.78
2022-09-12T10:49:51.109Z,4.60
2022-09-12T10:52:23.432Z,6.90
2022-09-12T10:54:52.030Z,6.95
2022-09-12T10:57:49.096Z,7.47
2022-09-12T11:00:27.409Z,7.43
2022-09-12T11:03:10.603Z,9.13
2022-09-12T11:05:59.876Z,5.13
2022-09-12T11:08:52.145Z,5.35
2022-09-12T11:11:35.406Z,5.32
2022-09-12T11:14:15.271Z,7.43
2022-09-12T11:16:50.130Z,7.68
2022-09-12T11:19:48.368Z,4.22
2022-09-12T11:22:33.468Z,7.15
2022-09-12T11:25:17.680Z,4.43
2022-09-12T11:28:01.471Z,4.40
2022-09-12T11:33:25.315Z,3.88
2022-09-12T11:35:57.385Z,2.92
2022-09-12T11:38:52.983Z,2.03
2022-09-12T11:41:28.771Z,5.18
2022-09-12T11:44:02.558Z,2.85
2022-09-12T11:46:35.637Z,4.47
2022-09-12T11:49:21.711Z,3.10
2022-09-12T11:51:56.244Z,3.25
2022-09-12T11:57:42.023Z,3.72
2022-09-12T12:00:19.491Z,3.55
2022-09-12T12:02:56.810Z,1.95
2022-09-12T12:05:29.906Z,1.92
2022-09-12T12:07:59.431Z,5.28
2022-09-12T12:10:33.965Z,2.00
2022-09-12T12:13:13.297Z,2.60
2022-09-12T12:15:48.307Z,2.67
2022-09-12T12:18:19.836Z,3.95
2022-09-12T12:20:48.097Z,2.72
2022-09-12T12:23:30.693Z,4.28
2022-09-12T12:26:00.892Z,1.60
2022-09-12T12:28:58.835Z,3.95
2022-09-12T12:31:26.933Z,1.70
2022-09-12T12:34:22.769Z,1.35
2022-09-12T12:36:51.181Z,2.17
2022-09-12T12:40:01.107Z,3.17
2022-09-12T12:43:07.691Z,1.92
2022-09-12T12:46:08.566Z,1.52
2022-09-12T12:49:00.109Z,2.30
2022-09-12T12:51:36.473Z,6.95
2022-09-12T12:54:12.346Z,2.65
2022-09-12T12:56:43.057Z,2.85
2022-09-12T12:59:18.975Z,1.92
2022-09-12T13:01:54.972Z,1.35
2022-09-12T13:04:26.409Z,2.00
2022-09-12T13:07:07.174Z,2.83
2022-09-12T13:09:40.169Z,2.75
2022-09-12T13:12:11.296Z,2.15
2022-09-12T13:14:52.004Z,4.53
2022-09-12T13:17:35.439Z,2.83
2022-09-12T13:20:27.849Z,2.33
2022-09-12T13:22:57.038Z,1.30
2022-09-12T13:25:29.445Z,2.08
2022-09-12T13:28:02.132Z,1.77
2022-09-12T13:30:32.876Z,2.40
2022-09-12T13:33:21.156Z,1.80
2022-09-12T13:36:31.820Z,2.47
2022-09-12T13:39:21.332Z,1.85
2022-09-12T13:45:29.368Z,2.95
2022-09-12T13:48:01.950Z,1.40
2022-09-12T13:50:40.290Z,1.35
2022-09-12T13:53:15.038Z,1.30
2022-09-12T13:55:46.737Z,2.20
2022-09-12T13:58:20.855Z,2.17
2022-09-12T14:03:47.864Z,2.08
2022-09-12T14:06:19.009Z,1.92
2022-09-12T14:08:48.715Z,1.92
2022-09-12T14:11:27.138Z,2.42
2022-09-12T14:13:56.279Z,1.48
2022-09-12T14:16:27.308Z,1.58
2022-09-12T14:18:56.075Z,1.92
2022-09-12T14:21:43.555Z,1.85
2022-09-12T14:24:13.914Z,1.70
2022-09-12T14:26:45.028Z,2.30
2022-09-12T14:29:17.281Z,2.05
2022-09-12T14:31:45.614Z,1.90
2022-09-12T14:34:16.172Z,2.15
2022-09-12T14:36:48.191Z,3.10
2022-09-12T14:39:24.682Z,2.08
2022-09-12T14:42:02.302Z,1.67
2022-09-12T14:44:32.049Z,1.95
2022-09-12T14:47:12.632Z,1.50
2022-09-12T14:49:40.928Z,2.03
2022-09-12T14:52:24.526Z,2.35
2022-09-12T14:55:00.674Z,2.22
2022-09-12T14:57:40.776Z,2.50
2022-09-12T15:00:21.356Z,1.75
2022-09-12T15:02:51.050Z,2.95
2022-09-12T15:05:23.404Z,2.58
2022-09-12T15:08:01.291Z,2.97
2022-09-12T15:10:32.326Z,1.73
2022-09-12T15:13:19.436Z,2.20
2022-09-12T15:15:49.769Z,1.52
2022-09-12T15:18:18.937Z,3.40
2022-09-12T15:20:49.125Z,1.98
2022-09-12T15:23:24.253Z,1.65
2022-09-12T15:25:52.319Z,2.97
2022-09-12T15:28:22.252Z,1.80
2022-09-12T15:30:52.865Z,2.17
2022-09-12T15:33:24.132Z,1.50
2022-09-12T15:35:53.414Z,1.77
2022-09-12T15:38:26.323Z,2.60
2022-09-12T15:40:55.890Z,2.10
2022-09-12T15:43:26.202Z,3.40
2022-09-12T15:45:54.523Z,2.00
2022-09-12T15:48:22.757Z,1.40
2022-09-12T15:50:50.850Z,1.65
2022-09-12T15:53:19.355Z,3.47
2022-09-12T15:55:48.699Z,3.20
2022-09-12T15:58:16.812Z,2.50
2022-09-12T16:00:45.078Z,2.35
2022-09-12T16:03:22.493Z,3.35
2022-09-12T16:05:51.352Z,2.88
2022-09-12T16:08:19.354Z,2.85
2022-09-12T16:10:52.851Z,3.38
2022-09-12T16:13:21.065Z,2.50
2022-09-12T16:15:50.391Z,2.58
2022-09-12T16:18:18.621Z,3.83
2022-09-12T16:20:46.798Z,3.75
2022-09-12T16:23:14.941Z,2.03
2022-09-12T16:25:43.145Z,3.92
2022-09-12T16:28:12.941Z,2.58
2022-09-12T16:30:41.296Z,3.67
2022-09-12T16:33:09.371Z,3.85
2022-09-12T16:35:37.373Z,2.45
2022-09-12T16:38:05.559Z,1.88
2022-09-12T16:40:33.572Z,3.15
2022-09-12T16:43:01.800Z,6.75
2022-09-12T16:45:31.147Z,2.60
2022-09-12T16:47:59.310Z,4.20
2022-09-12T16:50:29.156Z,10.45
2022-09-12T16:52:57.313Z,2.40
2022-09-12T16:55:25.382Z,3.47
2022-09-12T16:57:54.234Z,2.40
2022-09-12T17:00:22.427Z,2.08
2022-09-12T17:02:51.895Z,2.55
2022-09-12T17:05:20.701Z,2.30
2022-09-12T17:07:48.684Z,2.38
2022-09-12T17:10:16.900Z,3.08
2022-09-12T17:12:44.893Z,3.60
2022-09-12T17:15:12.976Z,6.05
2022-09-12T17:17:40.989Z,5.97
2022-09-12T17:20:11.208Z,4.07
2022-09-12T17:22:39.248Z,2.53
2022-09-12T17:25:08.034Z,4.80
2022-09-12T17:27:36.032Z,7.60
2022-09-12T17:30:04.395Z,5.43
2022-09-12T17:32:32.531Z,2.63
2022-09-12T17:35:01.005Z,4.28
2022-09-12T17:37:31.041Z,4.72
2022-09-12T17:39:59.105Z,4.20
2022-09-12T17:42:27.248Z,4.78
2022-09-12T17:44:58.258Z,2.83
2022-09-12T17:47:26.357Z,3.45
2022-09-12T17:50:05.152Z,3.83
2022-09-12T17:52:43.993Z,7.85
2022-09-12T17:55:13.057Z,5.35
2022-09-12T17:57:41.270Z,4.05
2022-09-12T18:00:10.565Z,3.83
2022-09-12T18:02:40.255Z,4.78
2022-09-12T18:05:10.311Z,6.10
2022-09-12T18:07:43.493Z,3.42
2022-09-12T18:10:13.857Z,5.68
2022-09-12T18:12:41.831Z,4.30
2022-09-12T18:15:11.125Z,4.53
2022-09-12T18:17:39.940Z,4.93
2022-09-12T18:20:08.807Z,7.32
2022-09-12T18:22:36.811Z,2.92
2022-09-12T18:25:05.383Z,7.07
2022-09-12T18:27:34.731Z,5.60
2022-09-12T18:30:20.496Z,3.45
2022-09-12T18:32:50.056Z,6.80
2022-09-12T18:35:18.645Z,3.58
2022-09-12T18:37:46.629Z,3.47
2022-09-12T18:40:14.814Z,4.72
2022-09-12T18:42:44.313Z,4.05
2022-09-12T18:45:12.310Z,4.38
2022-09-12T18:47:40.608Z,3.70
2022-09-12T18:50:09.152Z,4.32
2022-09-12T18:52:37.651Z,6.80
2022-09-12T18:55:06.535Z,4.30
2022-09-12T18:57:35.249Z,5.57
2022-09-12T19:00:10.534Z,4.68
2022-09-12T19:02:40.900Z,7.60
2022-09-12T19:05:09.515Z,11.75
2022-09-12T19:07:38.144Z,5.93
2022-09-12T19:10:06.921Z,4.47
2022-09-12T19:12:34.976Z,3.30
2022-09-12T19:15:04.951Z,3.88
2022-09-12T19:17:32.984Z,4.90
2022-09-12T19:20:01.089Z,2.15
2022-09-12T19:22:30.537Z,4.00
2022-09-12T19:24:58.745Z,3.83
2022-09-12T19:27:26.781Z,2.28
2022-09-12T19:29:54.781Z,3.78
2022-09-12T19:32:24.147Z,3.28
2022-09-12T19:34:52.193Z,3.28
2022-09-12T19:37:20.358Z,3.60
2022-09-12T19:39:48.398Z,4.20
2022-09-12T19:42:16.611Z,4.45
2022-09-12T19:44:44.785Z,5.63
2022-09-12T19:47:12.759Z,3.65
2022-09-12T19:49:42.263Z,4.18
2022-09-12T19:52:11.863Z,4.97
2022-09-12T19:54:42.397Z,6.22
2022-09-12T19:57:10.531Z,5.15
2022-09-12T19:59:38.504Z,3.90
2022-09-12T20:02:06.846Z,7.68
2022-09-12T20:04:35.002Z,3.97
2022-09-12T20:07:04.587Z,4.70
2022-09-12T20:09:32.597Z,3.70
2022-09-12T20:12:00.550Z,3.35
2022-09-12T20:14:28.719Z,3.92
2022-09-12T20:16:56.749Z,3.40
2022-09-12T20:19:24.846Z,5.15
2022-09-12T20:21:52.790Z,4.93
2022-09-12T20:24:22.235Z,7.93
2022-09-12T20:26:50.183Z,6.18
2022-09-12T20:29:18.499Z,3.83
2022-09-12T20:31:46.625Z,2.88
2022-09-12T20:34:16.602Z,4.22
2022-09-12T20:36:44.749Z,3.25
2022-09-12T20:39:15.045Z,2.42
2022-09-12T20:41:44.667Z,4.45
2022-09-12T20:44:13.008Z,2.92
2022-09-12T20:46:41.577Z,13.80
2022-09-12T20:49:10.105Z,2.60
2022-09-12T20:51:39.103Z,4.55
2022-09-12T20:54:08.264Z,3.05
2022-09-12T20:56:37.816Z,5.68
2022-09-12T20:59:07.583Z,4.97
2022-09-12T21:01:35.852Z,4.63
2022-09-12T21:04:04.480Z,5.43
2022-09-12T21:06:32.876Z,7.78
2022-09-12T21:09:00.977Z,3.03
2022-09-12T21:11:29.735Z,6.03
2022-09-12T21:13:58.914Z,3.80
2022-09-12T21:16:28.790Z,5.05
2022-09-12T21:18:58.616Z,3.95
2022-09-12T21:21:27.473Z,7.07
2022-09-12T21:23:59.582Z,4.57
2022-09-12T21:26:28.290Z,5.85
2022-09-12T21:28:56.564Z,4.28
2022-09-12T21:31:24.707Z,4.90
2022-09-12T21:33:54.091Z,5.30
2022-09-12T21:36:22.036Z,4.80
2022-09-12T21:38:50.191Z,3.67
2022-09-12T21:41:18.457Z,3.75
2022-09-12T21:43:46.544Z,3.22
2022-09-12T21:46:14.709Z,3.80
2022-09-12T21:48:43.849Z,3.72
2022-09-12T21:51:13.278Z,3.78
2022-09-12T21:53:41.332Z,6.60
2022-09-12T21:56:10.292Z,3.35
2022-09-12T21:58:39.107Z,5.20
2022-09-12T22:01:09.378Z,4.38
2022-09-12T22:03:37.546Z,2.95
2022-09-12T22:06:07.422Z,3.17
2022-09-12T22:08:38.815Z,4.88
2022-09-12T22:11:09.670Z,4.88
2022-09-12T22:13:39.206Z,7.63
2022-09-12T22:16:10.999Z,3.83
2022-09-12T22:18:39.556Z,4.65
2022-09-12T22:21:09.630Z,8.40
2022-09-12T22:23:56.382Z,4.78
2022-09-12T22:26:24.341Z,5.00
2022-09-12T22:28:52.558Z,5.05
2022-09-12T22:31:20.925Z,3.97
2022-09-12T22:33:50.815Z,3.67
2022-09-12T22:36:19.089Z,5.38
2022-09-12T22:38:48.559Z,4.05
2022-09-12T22:41:16.676Z,6.20
2022-09-12T22:43:44.925Z,3.72
2022-09-12T22:46:13.393Z,4.20
2022-09-12T22:48:41.881Z,4.85
2022-09-12T22:51:10.598Z,4.65
2022-09-12T22:53:39.046Z,5.30
2022-09-12T22:56:09.376Z,9.40
2022-09-12T22:58:38.142Z,4.65
2022-09-12T23:01:07.091Z,4.25
2022-09-12T23:03:36.400Z,5.35
2022-09-12T23:06:05.663Z,3.63
2022-09-12T23:08:39.811Z,3.90
2022-09-12T23:11:11.351Z,6.38
2022-09-12T23:13:40.010Z,4.13
2022-09-12T23:16:09.183Z,3.80
2022-09-12T23:18:38.329Z,6.05
2022-09-12T23:21:08.553Z,5.47
2022-09-12T23:23:37.263Z,5.10
2022-09-12T23:26:07.461Z,3.47
2022-09-12T23:28:37.686Z,4.32
2022-09-12T23:31:06.195Z,4.03
2022-09-12T23:33:34.470Z,5.30
2022-09-12T23:36:03.038Z,6.20
2022-09-12T23:38:32.167Z,4.63
2022-09-12T23:41:01.158Z,4.95
2022-09-12T23:43:29.247Z,5.40
2022-09-12T23:45:59.134Z,7.30
2022-09-12T23:48:27.621Z,5.20
2022-09-12T23:50:55.926Z,5.65
2022-09-12T23:53:24.166Z,8.02
2022-09-12T23:55:52.819Z,4.82
2022-09-12T23:58:21.582Z,4.38
